createdAt,value
2023-01-20T00:02:16.530Z,7.28
2023-01-20T00:07:19.349Z,10.63
2023-01-20T00:12:23.464Z,10.93
2023-01-20T00:17:25.989Z,8.73
2023-01-20T00:22:28.522Z,11.67
2023-01-20T00:27:32.440Z,5.80
2023-01-20T00:32:37.707Z,12.32
2023-01-20T00:37:40.408Z,5.90
2023-01-20T00:42:44.330Z,8.30
2023-01-20T00:47:46.903Z,12.18
2023-01-20T00:52:49.500Z,9.33
2023-01-20T00:57:53.835Z,8.87
2023-01-20T01:07:59.140Z,9.80
2023-01-20T01:13:03.458Z,11.07
2023-01-20T01:23:08.433Z,10.27
2023-01-20T01:28:12.415Z,10.40
2023-01-20T01:33:14.908Z,9.40
2023-01-20T01:38:17.470Z,10.43
2023-01-20T01:43:24.469Z,8.87
2023-01-20T01:48:29.735Z,9.93
2023-01-20T01:53:34.532Z,12.47
2023-01-20T01:58:40.052Z,8.40
2023-01-20T02:03:46.069Z,4.73
2023-01-20T02:08:49.205Z,8.73
2023-01-20T02:13:53.253Z,7.77
2023-01-20T02:19:01.055Z,7.32
2023-01-20T02:24:28.614Z,13.13
2023-01-20T02:29:45.329Z,14.80
2023-01-20T02:34:53.395Z,6.90
2023-01-20T02:40:10.558Z,9.73
2023-01-20T02:45:16.721Z,5.40
2023-01-20T02:50:23.627Z,4.90
2023-01-20T02:55:29.420Z,8.07
2023-01-20T03:00:34.225Z,2.07
2023-01-20T03:05:40.295Z,9.03
2023-01-20T03:10:43.390Z,6.80
2023-01-20T03:15:50.413Z,7.83
2023-01-20T03:20:54.272Z,9.80
2023-01-20T03:25:57.898Z,11.18
2023-01-20T03:31:01.660Z,5.63
2023-01-20T03:36:05.934Z,8.80
2023-01-20T03:41:11.128Z,2.92
2023-01-20T03:46:16.832Z,5.03
2023-01-20T03:51:24.113Z,4.60
2023-01-20T03:56:29.824Z,2.17
2023-01-20T04:01:33.674Z,7.17
2023-01-20T04:06:38.299Z,4.00
2023-01-20T04:11:40.887Z,3.87
2023-01-20T04:16:43.646Z,4.17
2023-01-20T04:21:49.455Z,4.23
2023-01-20T04:26:52.111Z,4.23
2023-01-20T04:31:59.173Z,7.03
2023-01-20T04:37:03.193Z,7.77
2023-01-20T04:42:05.979Z,8.23
2023-01-20T04:47:08.846Z,6.17
2023-01-20T04:52:12.760Z,9.60
2023-01-20T04:57:15.263Z,10.85
2023-01-20T05:02:17.819Z,4.97
2023-01-20T05:07:21.753Z,11.03
2023-01-20T05:12:24.354Z,3.95
2023-01-20T05:17:27.022Z,11.30
2023-01-20T05:22:33.235Z,12.53
2023-01-20T05:27:36.128Z,14.33
2023-01-20T05:32:39.039Z,11.27
2023-01-20T05:37:43.033Z,3.50
2023-01-20T05:42:46.182Z,7.13
2023-01-20T05:47:48.687Z,14.57
2023-01-20T05:52:53.030Z,16.30
2023-01-20T05:57:55.507Z,8.43
2023-01-20T06:02:58.242Z,3.53
2023-01-20T06:08:02.295Z,7.47
2023-01-20T06:13:04.936Z,12.82
2023-01-20T06:18:07.591Z,12.37
2023-01-20T06:23:11.565Z,12.83
2023-01-20T06:28:14.227Z,12.50
2023-01-20T06:33:16.812Z,13.27
2023-01-20T06:38:20.721Z,12.00
2023-01-20T06:43:23.373Z,14.90
2023-01-20T06:48:25.916Z,12.23
2023-01-20T06:53:30.145Z,9.57
2023-01-20T07:03:35.274Z,17.17
2023-01-20T07:08:39.194Z,13.97
2023-01-20T07:13:41.816Z,14.15
2023-01-20T07:18:44.919Z,13.37
2023-01-20T07:23:49.162Z,15.53
2023-01-20T07:33:56.006Z,7.27
2023-01-20T07:39:00.681Z,8.00
2023-01-20T07:44:03.789Z,13.82
2023-01-20T07:49:06.457Z,11.23
2023-01-20T07:54:11.290Z,8.67
2023-01-20T07:59:13.910Z,10.47
2023-01-20T08:04:17.941Z,11.87
2023-01-20T08:09:21.978Z,9.30
2023-01-20T08:14:24.785Z,7.78
2023-01-20T08:19:29.461Z,11.30
2023-01-20T08:24:33.578Z,7.33
2023-01-20T08:29:36.346Z,12.07
2023-01-20T08:34:39.087Z,15.43
2023-01-20T08:39:43.317Z,6.87
2023-01-20T08:49:49.254Z,4.40
2023-01-20T08:54:54.089Z,10.33
2023-01-20T08:59:56.692Z,10.97
2023-01-20T09:04:59.303Z,8.93
2023-01-20T09:10:03.314Z,6.70
2023-01-20T09:15:07.549Z,8.07
2023-01-20T09:25:14.072Z,10.00
2023-01-20T09:35:19.100Z,6.83
2023-01-20T09:40:59.011Z,9.23
2023-01-20T09:46:04.489Z,13.80
2023-01-20T09:51:27.416Z,8.83
2023-01-20T09:56:32.191Z,5.10
2023-01-20T10:01:38.301Z,11.17
2023-01-20T10:06:42.652Z,9.13
2023-01-20T10:16:52.581Z,10.90
2023-01-20T10:21:59.662Z,8.33
2023-01-20T10:27:03.055Z,9.60
2023-01-20T10:32:11.027Z,6.97
2023-01-20T10:37:15.166Z,10.33
2023-01-20T10:42:18.424Z,8.05
2023-01-20T10:47:34.178Z,7.50
2023-01-20T10:52:45.500Z,3.30
2023-01-20T10:57:50.019Z,5.10
2023-01-20T11:02:54.180Z,4.03
2023-01-20T11:07:57.492Z,5.03
2023-01-20T11:13:01.633Z,6.68
2023-01-20T11:18:26.614Z,5.85
2023-01-20T11:23:35.386Z,4.50
2023-01-20T11:28:45.449Z,2.70
2023-01-20T11:34:00.333Z,6.43
2023-01-20T11:39:02.906Z,1.75
2023-01-20T11:44:07.757Z,6.10
2023-01-20T11:49:18.933Z,5.22
2023-01-20T11:54:22.349Z,6.07
2023-01-20T11:59:27.925Z,11.67
2023-01-20T12:04:42.299Z,4.57
2023-01-20T12:14:49.964Z,7.50
2023-01-20T12:20:00.264Z,10.07
2023-01-20T12:25:11.548Z,9.18
2023-01-20T12:30:22.909Z,9.55
2023-01-20T12:35:28.953Z,12.38
2023-01-20T12:40:36.649Z,9.70
2023-01-20T12:45:47.864Z,14.85
2023-01-20T12:50:58.753Z,8.57
2023-01-20T12:56:05.543Z,14.63
2023-01-20T13:01:17.961Z,14.83
2023-01-20T13:06:35.931Z,16.97
2023-01-20T13:11:47.790Z,16.63
2023-01-20T13:16:53.196Z,14.90
2023-01-20T13:22:07.306Z,20.67
2023-01-20T13:27:13.782Z,14.93
2023-01-20T13:32:35.112Z,13.93
2023-01-20T13:37:38.287Z,14.77
2023-01-20T13:42:52.158Z,17.47
2023-01-20T13:47:58.719Z,14.98
2023-01-20T13:53:19.205Z,21.90
2023-01-20T13:58:24.102Z,22.13
2023-01-20T14:03:28.831Z,15.40
2023-01-20T14:08:32.744Z,18.53
2023-01-20T14:13:36.649Z,14.00
2023-01-20T14:18:41.653Z,15.60
2023-01-20T14:23:45.970Z,11.83
2023-01-20T14:33:58.083Z,15.77
2023-01-20T14:39:04.000Z,18.10
2023-01-20T14:44:16.404Z,19.83
2023-01-20T14:49:20.994Z,22.37
2023-01-20T14:54:40.243Z,14.03
2023-01-20T14:59:42.888Z,15.40
2023-01-20T15:04:46.891Z,17.07
2023-01-20T15:09:54.302Z,22.63
2023-01-20T15:15:00.723Z,16.37
2023-01-20T15:20:04.889Z,18.17
2023-01-20T15:25:13.592Z,22.77
2023-01-20T15:30:21.179Z,12.13
2023-01-20T15:35:26.769Z,21.57
2023-01-20T15:40:29.446Z,19.47
2023-01-20T15:45:39.655Z,22.87
2023-01-20T15:50:45.412Z,23.20
2023-01-20T16:00:50.723Z,20.07
2023-01-20T16:05:55.730Z,25.83
2023-01-20T16:10:58.281Z,14.73
2023-01-20T16:16:01.497Z,24.47
2023-01-20T16:21:05.771Z,19.57
2023-01-20T16:31:11.282Z,28.00
2023-01-20T16:36:16.244Z,23.87
2023-01-20T16:41:21.497Z,24.60
2023-01-20T16:46:25.316Z,21.57
2023-01-20T16:51:29.932Z,25.50
2023-01-20T16:56:33.076Z,21.63
2023-01-20T17:01:35.738Z,18.83
2023-01-20T17:06:41.085Z,21.13
2023-01-20T17:11:43.831Z,21.40
2023-01-20T17:16:46.628Z,27.13
2023-01-20T17:21:51.252Z,19.83
2023-01-20T17:26:54.474Z,22.80
2023-01-20T17:31:57.621Z,26.63
2023-01-20T17:37:04.706Z,25.70
2023-01-20T17:42:07.371Z,25.02
2023-01-20T17:47:09.850Z,26.37
2023-01-20T17:52:13.709Z,25.90
2023-01-20T17:57:16.242Z,26.80
2023-01-20T18:02:20.813Z,29.97
2023-01-20T18:07:24.832Z,26.37
2023-01-20T18:12:27.455Z,29.65
2023-01-20T18:17:34.237Z,26.47
2023-01-20T18:22:38.254Z,29.77
2023-01-20T18:27:40.891Z,27.17
2023-01-20T18:32:43.581Z,26.90
2023-01-20T18:38:01.877Z,29.97
2023-01-20T18:43:05.700Z,25.83
2023-01-20T18:48:10.112Z,28.07
2023-01-20T18:53:14.185Z,27.10
2023-01-20T18:58:17.733Z,25.00
2023-01-20T19:03:20.610Z,32.70
2023-01-20T19:08:24.805Z,31.40
2023-01-20T19:18:29.794Z,28.97
2023-01-20T19:23:33.815Z,31.40
2023-01-20T19:28:36.583Z,29.50
2023-01-20T19:33:39.509Z,26.50
2023-01-20T19:38:44.413Z,24.97
2023-01-20T19:43:47.118Z,25.00
2023-01-20T19:48:49.601Z,29.00
2023-01-20T19:53:57.447Z,31.97
2023-01-20T19:59:01.409Z,28.53
2023-01-20T20:04:05.600Z,24.15
2023-01-20T20:14:13.888Z,28.00
2023-01-20T20:19:18.024Z,22.37
2023-01-20T20:24:23.546Z,26.80
2023-01-20T20:29:28.046Z,28.23
2023-01-20T20:34:30.768Z,28.60
2023-01-20T20:39:33.494Z,29.17
2023-01-20T20:44:37.389Z,25.17
2023-01-20T20:49:40.127Z,28.85
2023-01-20T20:54:42.898Z,27.60
2023-01-20T20:59:58.494Z,23.20
2023-01-20T21:05:02.172Z,27.67
2023-01-20T21:10:05.754Z,25.37
2023-01-20T21:15:11.379Z,24.05
2023-01-20T21:20:14.395Z,20.07
2023-01-20T21:25:17.746Z,25.50
2023-01-20T21:30:21.812Z,25.50
2023-01-20T21:35:24.606Z,23.13
2023-01-20T21:40:27.481Z,24.23
2023-01-20T21:45:31.505Z,23.87
2023-01-20T21:50:51.788Z,22.42
2023-01-20T21:55:54.407Z,27.53
2023-01-20T22:00:58.372Z,24.13
2023-01-20T22:06:03.825Z,27.00
2023-01-20T22:11:06.689Z,20.07
2023-01-20T22:16:10.909Z,21.10
2023-01-20T22:26:16.270Z,22.33
2023-01-20T22:31:23.314Z,27.80
2023-01-20T22:36:26.166Z,27.37
2023-01-20T22:41:28.950Z,25.87
2023-01-20T22:46:32.800Z,28.67
2023-01-20T22:51:35.293Z,25.52
2023-01-20T22:56:38.928Z,22.10
2023-01-20T23:01:42.874Z,20.98
2023-01-20T23:06:45.460Z,23.15
2023-01-20T23:11:48.759Z,21.83
2023-01-20T23:16:52.759Z,23.47
2023-01-20T23:21:55.419Z,22.45
2023-01-20T23:26:58.055Z,28.97
2023-01-20T23:32:02.116Z,27.17
2023-01-20T23:37:04.814Z,27.70
2023-01-20T23:42:07.592Z,26.03
2023-01-20T23:47:11.470Z,20.17
2023-01-20T23:52:14.332Z,25.88
2023-01-20T23:57:16.956Z,21.57
